Aérodrome :
LOGIN :

S'inscrire | Disclaimer

   EN    FR    IT 

 










Légende :    VFR   VFR Marginal   IFR   IFR Intensif   IFR Très Intensif
Visi : 
Plafond : 
>= 8 km
>= 3000ft
5 à 8 km
1000 à 3000 ft
1500m à 5 km
500 à 1000 ft
800 à 1500m
200 à 500 ft
< 800m
< 200 ft
Symboles :   Orages  Brouillard  Fortes neiges  Fortes précipitations  Vent > 20 kt
SIGMETs :   Divers  Orages  Givrage  Turbulence  Onde Orograph.  Cendres Volcan.






- Altitude de l'aérodrome : 3 ft
- Code IATA : DHR


EHKD - Den Helder De Kooy

DERNIER METAR :
  • 162225Z AUTO 18005KT 9999 SCT240 12/11 Q1006 BLU

METARs EXPIRÉS :
  • 162155Z AUTO 18005KT 9999 OVC250 12/11 Q1006 BLU
  • 162125Z AUTO 21006KT 9999 SCT073 BKN280 13/12 Q1006 BLU
  • 162055Z AUTO 21007KT 180V240 9999 NCD 14/12 Q1006 BLU
  • 162025Z AUTO 22007KT 9999 NCD 14/12 Q1006 BLU
  • 161955Z AUTO 22008KT 9999 FEW012 14/12 Q1006 BLU
  • 161925Z AUTO 22010KT 180V250 9999 FEW012 15/12 Q1005 BLU
  • 161855Z AUTO 22012KT 190V250 9999 FEW013 15/12 Q1005 BLU
  • 161825Z AUTO 22010KT 190V260 9999 NCD 15/12 Q1005 BLU
  • 161755Z AUTO 23014KT 200V260 9999 FEW014 16/12 Q1005 BLU
  • 161734Z AUTO 23014KT 190V260 9999 FEW015 16/12 Q1004 BLU

TAF TAF EHKD
Valide du 16 à 13h jusqu'au 17 à 01h UTC


161212Z 1613/1701 22018G28KT 9999 SCT030
TEMPO 1609/1616 SCT018CB BKN025
PROB30
TEMPO 1613/1615 3500 SHRA TSRA SCT012 SCT015CB BKN020
BECMG 1617/1620 22009KT



MET'MAP, la Météo Aéronautique d'un coup d'oeil ! - Copyright ORBIFLY Décembre 2007 - Disclaimer

ORBIFLY MET'MAP TEAM :

Programmation & Développement : Alexandra Zaïnal
Sur une idée originale de : Baudouin d'Aumeries
Soutien technique & logistique : Manuel Goepfert
Assistance : Marc-Olivier Méhu




SOURCES & CREDITS :

   NOAA